createdAt,value
2016-04-12T00:00:19.345Z,1003.66
2016-04-12T00:01:02.300Z,1003.59
2016-04-12T00:01:45.256Z,1003.59
2016-04-12T00:02:28.225Z,1003.57
2016-04-12T00:03:11.165Z,1003.55
2016-04-12T00:03:54.120Z,1003.55
2016-04-12T00:04:37.076Z,1003.55
2016-04-12T00:05:20.014Z,1003.54
2016-04-12T00:06:02.985Z,1003.53
2016-04-12T00:06:45.910Z,1003.54
2016-04-12T00:07:28.863Z,1003.52
2016-04-12T00:08:11.808Z,1003.55
2016-04-12T00:08:54.301Z,1003.54
2016-04-12T00:09:37.257Z,1003.54
2016-04-12T00:10:20.211Z,1003.52
2016-04-12T00:11:03.151Z,1003.54
2016-04-12T00:11:46.091Z,1003.52
2016-04-12T00:12:28.887Z,1003.53
2016-04-12T00:13:11.844Z,1003.52
2016-04-12T00:13:54.800Z,1003.53
2016-04-12T00:14:37.739Z,1003.5
2016-04-12T00:15:20.677Z,1003.52
2016-04-12T00:16:03.633Z,1003.48
2016-04-12T00:16:46.588Z,1003.48
2016-04-12T00:17:29.541Z,1003.49
2016-04-12T00:18:12.466Z,1003.44
2016-04-12T00:18:55.422Z,1003.44
2016-04-12T00:19:38.362Z,1003.44
2016-04-12T00:20:21.315Z,1003.39
2016-04-12T00:21:04.286Z,1003.37
2016-04-12T00:21:47.226Z,1003.38
2016-04-12T00:22:30.199Z,1003.35
2016-04-12T00:23:13.167Z,1003.33
2016-04-12T00:23:56.107Z,1003.36
2016-04-12T00:24:39.063Z,1003.33
2016-04-12T00:25:22.001Z,1003.33
2016-04-12T00:26:04.987Z,1003.34
2016-04-12T00:26:47.944Z,1003.3
2016-04-12T00:27:30.898Z,1003.33
2016-04-12T00:28:13.851Z,1003.34
2016-04-12T00:28:56.824Z,1003.31
2016-04-12T00:29:39.765Z,1003.36
2016-04-12T00:30:22.716Z,1003.31
2016-04-12T00:31:05.546Z,1003.28
2016-04-12T00:31:48.213Z,1003.33
2016-04-12T00:32:30.858Z,1003.3
2016-04-12T00:33:13.798Z,1003.27
2016-04-12T00:33:56.738Z,1003.28
2016-04-12T00:34:39.694Z,1003.21
2016-04-12T00:35:22.647Z,1003.23
2016-04-12T00:36:05.603Z,1003.18
2016-04-12T00:36:48.575Z,1003.19
2016-04-12T00:37:31.515Z,1003.11
2016-04-12T00:38:13.687Z,1003.1
2016-04-12T00:38:56.627Z,1003.1
2016-04-12T00:39:39.583Z,1003.08
2016-04-12T00:40:22.520Z,1003.12
2016-04-12T00:41:05.476Z,1003.18
2016-04-12T00:41:48.431Z,1003.18
2016-04-12T00:42:31.384Z,1003.23
2016-04-12T00:43:14.357Z,1003.27
2016-04-12T00:43:57.344Z,1003.28
2016-04-12T00:44:40.299Z,1003.32
2016-04-12T00:45:23.236Z,1003.25
2016-04-12T00:46:06.178Z,1003.23
2016-04-12T00:46:49.133Z,1003.2
2016-04-12T00:47:32.089Z,1003.18
2016-04-12T00:48:15.058Z,1003.22
2016-04-12T00:48:57.997Z,1003.18
2016-04-12T00:49:40.954Z,1003.17
2016-04-12T00:50:23.892Z,1003.2
2016-04-12T00:51:06.847Z,1003.13
2016-04-12T00:51:49.787Z,1003.17
2016-04-12T00:52:32.758Z,1003.17
2016-04-12T00:53:15.727Z,1003.15
2016-04-12T00:53:58.699Z,1003.19
2016-04-12T00:54:41.639Z,1003.24
2016-04-12T00:55:24.577Z,1003.23
2016-04-12T00:56:07.533Z,1003.25
2016-04-12T00:56:50.488Z,1003.37
2016-04-12T00:57:33.443Z,1003.43
2016-04-12T00:58:16.365Z,1003.36
2016-04-12T00:58:59.338Z,1003.34
2016-04-12T00:59:42.308Z,1003.33
2016-04-12T01:00:25.246Z,1003.32
2016-04-12T01:01:08.185Z,1003.35
2016-04-12T01:01:51.127Z,1003.33
2016-04-12T01:02:34.004Z,1003.33
2016-04-12T01:03:16.957Z,1003.33
2016-04-12T01:03:59.913Z,1003.32
2016-04-12T01:04:42.853Z,1003.3
2016-04-12T01:05:25.806Z,1003.27
2016-04-12T01:06:08.762Z,1003.29
2016-04-12T01:06:51.734Z,1003.3
2016-04-12T01:07:34.674Z,1003.3
2016-04-12T01:08:17.502Z,1003.31
2016-04-12T01:09:00.442Z,1003.3
2016-04-12T01:09:43.398Z,1003.36
2016-04-12T01:10:26.335Z,1003.29
2016-04-12T01:11:09.307Z,1003.29
2016-04-12T01:11:52.248Z,1003.28
2016-04-12T01:12:35.203Z,1003.23
2016-04-12T01:13:18.156Z,1003.17
2016-04-12T01:14:01.127Z,1003.1
2016-04-12T01:14:44.083Z,1003.09
2016-04-12T01:15:27.052Z,1003.11
2016-04-12T01:16:10.008Z,1003.04
2016-04-12T01:16:52.995Z,1003.04
2016-04-12T01:17:36.247Z,1003.03
2016-04-12T01:18:19.200Z,1003.01
2016-04-12T01:19:02.156Z,1003.01
2016-04-12T01:19:45.097Z,1003.02
2016-04-12T01:20:28.050Z,1003
2016-04-12T01:21:11.005Z,1002.99
2016-04-12T01:21:53.946Z,1003
2016-04-12T01:22:36.902Z,1002.98
2016-04-12T01:23:19.839Z,1003.01
2016-04-12T01:24:02.811Z,1003.02
2016-04-12T01:24:45.735Z,1002.99
2016-04-12T01:25:28.719Z,1003.02
2016-04-12T01:26:11.675Z,1002.97
2016-04-12T01:26:54.631Z,1003.05
2016-04-12T01:28:19.524Z,1003.02
2016-04-12T01:29:02.465Z,1002.99
2016-04-12T01:29:45.421Z,1003.02
2016-04-12T01:30:28.358Z,1003.01
2016-04-12T01:31:11.329Z,1003.07
2016-04-12T01:31:54.269Z,1003.05
2016-04-12T01:32:37.288Z,1003.12
2016-04-12T01:33:20.226Z,1003.17
2016-04-12T01:34:03.181Z,1003.15
2016-04-12T01:34:46.121Z,1003.14
2016-04-12T01:35:29.074Z,1003.15
2016-04-12T01:36:11.999Z,1003.12
2016-04-12T01:36:54.814Z,1003.12
2016-04-12T01:37:37.801Z,1003.12
2016-04-12T01:38:20.739Z,1003.08
2016-04-12T01:39:03.695Z,1003.08
2016-04-12T01:39:46.650Z,1003.05
2016-04-12T01:40:29.587Z,1003.1
2016-04-12T01:41:12.559Z,1003.07
2016-04-12T01:41:55.515Z,1003.07
2016-04-12T01:42:38.470Z,1003.06
2016-04-12T01:43:21.408Z,1003.03
2016-04-12T01:44:04.365Z,1003.03
2016-04-12T01:44:47.304Z,1002.99
2016-04-12T01:45:30.258Z,1003
2016-04-12T01:46:13.214Z,1002.98
2016-04-12T01:46:56.169Z,1002.99
2016-04-12T01:47:39.266Z,1002.93
2016-04-12T01:48:22.047Z,1002.92
2016-04-12T01:49:05.003Z,1002.9
2016-04-12T01:49:47.974Z,1002.94
2016-04-12T01:50:30.927Z,1002.95
2016-04-12T01:51:13.867Z,1002.98
2016-04-12T01:51:56.839Z,1002.98
2016-04-12T01:53:21.716Z,1003
2016-04-12T01:54:04.500Z,1002.96
2016-04-12T01:54:47.472Z,1002.96
2016-04-12T01:55:30.425Z,1002.92
2016-04-12T01:56:13.366Z,1002.93
2016-04-12T01:56:56.322Z,1002.89
2016-04-12T01:57:39.277Z,1002.88
2016-04-12T01:58:22.214Z,1002.92
2016-04-12T01:59:05.170Z,1002.94
2016-04-12T01:59:48.111Z,1002.97
2016-04-12T02:00:31.049Z,1002.97
2016-04-12T02:01:14.019Z,1002.97
2016-04-12T02:01:56.991Z,1003
2016-04-12T02:02:40.088Z,1003.02
2016-04-12T02:03:23.025Z,1003.03
2016-04-12T02:04:05.965Z,1003.02
2016-04-12T02:04:48.968Z,1003.05
2016-04-12T02:05:31.905Z,1003.14
2016-04-12T02:06:14.860Z,1003.09
2016-04-12T02:06:57.848Z,1003.12
2016-04-12T02:07:40.804Z,1003.16
2016-04-12T02:08:23.741Z,1003.1
2016-04-12T02:09:06.681Z,1003.08
2016-04-12T02:09:49.637Z,1003.05
2016-04-12T02:10:32.590Z,1002.99
2016-04-12T02:11:15.545Z,1003.01
2016-04-12T02:11:58.486Z,1002.98
2016-04-12T02:12:41.442Z,1003
2016-04-12T02:13:24.395Z,1002.94
2016-04-12T02:14:07.336Z,1002.94
2016-04-12T02:14:50.291Z,1002.91
2016-04-12T02:15:33.228Z,1002.89
2016-04-12T02:16:16.184Z,1002.92
2016-04-12T02:16:59.172Z,1002.92
2016-04-12T02:17:42.284Z,1002.89
2016-04-12T02:18:25.237Z,1002.87
2016-04-12T02:19:08.209Z,1002.9
2016-04-12T02:19:51.148Z,1002.82
2016-04-12T02:20:34.089Z,1002.75
2016-04-12T02:21:58.983Z,1002.82
2016-04-12T02:22:41.938Z,1002.84
2016-04-12T02:23:24.875Z,1002.81
2016-04-12T02:24:07.863Z,1002.8
2016-04-12T02:24:50.787Z,1002.72
2016-04-12T02:25:33.743Z,1002.71
2016-04-12T02:26:16.696Z,1002.73
2016-04-12T02:26:59.652Z,1002.65
2016-04-12T02:27:42.607Z,1002.66
2016-04-12T02:28:25.576Z,1002.65
2016-04-12T02:29:08.532Z,1002.67
2016-04-12T02:29:51.472Z,1002.67
2016-04-12T02:30:34.427Z,1002.69
2016-04-12T02:31:17.381Z,1002.67
2016-04-12T02:32:00.368Z,1002.67
2016-04-12T02:32:43.387Z,1002.66
2016-04-12T02:33:26.340Z,1002.69
2016-04-12T02:34:09.311Z,1002.63
2016-04-12T02:34:52.268Z,1002.64
2016-04-12T02:35:35.224Z,1002.68
2016-04-12T02:36:18.146Z,1002.63
2016-04-12T02:37:01.116Z,1002.61
2016-04-12T02:37:44.057Z,1002.56
2016-04-12T02:38:27.026Z,1002.53
2016-04-12T02:39:09.965Z,1002.49
2016-04-12T02:39:52.937Z,1002.5
2016-04-12T02:40:35.877Z,1002.49
2016-04-12T02:41:18.830Z,1002.51
2016-04-12T02:42:01.786Z,1002.48
2016-04-12T02:42:44.601Z,1002.47
2016-04-12T02:43:27.539Z,1002.52
2016-04-12T02:44:10.510Z,1002.53
2016-04-12T02:44:53.451Z,1002.57
2016-04-12T02:45:36.406Z,1002.58
2016-04-12T02:46:19.375Z,1002.63
2016-04-12T02:47:02.378Z,1002.64
2016-04-12T02:47:45.489Z,1002.62
2016-04-12T02:48:28.270Z,1002.62
2016-04-12T02:49:11.226Z,1002.54
2016-04-12T02:49:54.183Z,1002.5
2016-04-12T02:50:36.341Z,1002.42
2016-04-12T02:51:19.294Z,1002.41
2016-04-12T02:52:02.234Z,1002.36
2016-04-12T02:52:45.175Z,1002.35
2016-04-12T02:53:28.128Z,1002.31
2016-04-12T02:54:11.099Z,1002.33
2016-04-12T02:54:54.071Z,1002.33
2016-04-12T02:55:37.027Z,1002.29
2016-04-12T02:56:19.964Z,1002.29
2016-04-12T02:57:44.875Z,1002.28
2016-04-12T02:58:27.813Z,1002.32
2016-04-12T02:59:10.752Z,1002.29
2016-04-12T02:59:53.709Z,1002.33
2016-04-12T03:00:36.680Z,1002.34
2016-04-12T03:01:19.618Z,1002.35
2016-04-12T03:02:02.574Z,1002.37
2016-04-12T03:02:45.498Z,1002.43
2016-04-12T03:03:28.467Z,1002.45
2016-04-12T03:04:11.423Z,1002.47
2016-04-12T03:04:54.410Z,1002.48
2016-04-12T03:05:37.350Z,1002.54
2016-04-12T03:06:20.287Z,1002.59
2016-04-12T03:07:03.243Z,1002.57
2016-04-12T03:07:46.215Z,1002.56
2016-04-12T03:08:29.152Z,1002.59
2016-04-12T03:09:12.108Z,1002.62
2016-04-12T03:09:55.048Z,1002.59
2016-04-12T03:10:38.020Z,1002.58
2016-04-12T03:11:20.973Z,1002.55
2016-04-12T03:12:03.960Z,1002.57
2016-04-12T03:12:46.916Z,1002.56
2016-04-12T03:13:29.854Z,1002.56
2016-04-12T03:14:12.793Z,1002.64
2016-04-12T03:14:55.750Z,1002.66
2016-04-12T03:15:38.705Z,1002.68
2016-04-12T03:16:21.658Z,1002.71
2016-04-12T03:17:04.692Z,1002.72
2016-04-12T03:17:47.570Z,1002.62
2016-04-12T03:18:30.523Z,1002.66
2016-04-12T03:19:13.494Z,1002.63
2016-04-12T03:19:56.467Z,1002.63
2016-04-12T03:20:39.423Z,1002.66
2016-04-12T03:21:22.392Z,1002.66
2016-04-12T03:22:05.331Z,1002.65
2016-04-12T03:22:48.272Z,1002.66
2016-04-12T03:23:31.209Z,1002.67
2016-04-12T03:24:14.164Z,1002.7
2016-04-12T03:24:57.120Z,1002.69
2016-04-12T03:25:40.076Z,1002.72
2016-04-12T03:26:23.014Z,1002.76
2016-04-12T03:27:05.985Z,1002.78
2016-04-12T03:27:48.925Z,1002.79
2016-04-12T03:28:31.878Z,1002.8
2016-04-12T03:29:14.818Z,1002.84
2016-04-12T03:29:57.790Z,1002.78
2016-04-12T03:30:40.761Z,1002.78
2016-04-12T03:31:23.730Z,1002.81
2016-04-12T03:32:06.716Z,1002.8
2016-04-12T03:32:49.673Z,1002.78
2016-04-12T03:33:32.610Z,1002.82
2016-04-12T03:34:15.613Z,1002.81
2016-04-12T03:34:58.554Z,1002.83
2016-04-12T03:35:41.524Z,1002.83
2016-04-12T03:36:24.477Z,1002.81
2016-04-12T03:37:07.277Z,1002.8
2016-04-12T03:37:50.218Z,1002.8
2016-04-12T03:38:33.155Z,1002.72
2016-04-12T03:39:16.111Z,1002.7
2016-04-12T03:39:59.083Z,1002.72
2016-04-12T03:40:42.023Z,1002.7
2016-04-12T03:41:24.960Z,1002.71
2016-04-12T03:42:07.916Z,1002.69
2016-04-12T03:42:50.856Z,1002.67
2016-04-12T03:43:33.809Z,1002.65
2016-04-12T03:44:16.749Z,1002.65
2016-04-12T03:44:59.706Z,1002.65
2016-04-12T03:45:42.645Z,1002.62
2016-04-12T03:46:25.598Z,1002.59
2016-04-12T03:47:08.601Z,1002.58
2016-04-12T03:47:52.072Z,1002.62
2016-04-12T03:48:35.106Z,1002.54
2016-04-12T03:49:18.059Z,1002.52
2016-04-12T03:50:01.000Z,1002.48
2016-04-12T03:50:43.955Z,1002.48
2016-04-12T03:51:26.908Z,1002.42
2016-04-12T03:52:09.880Z,1002.43
2016-04-12T03:52:52.820Z,1002.4
2016-04-12T03:53:35.776Z,1002.4
2016-04-12T03:54:18.745Z,1002.41
2016-04-12T03:55:01.686Z,1002.39
2016-04-12T03:55:44.641Z,1002.39
2016-04-12T03:56:27.594Z,1002.38
2016-04-12T03:57:10.550Z,1002.41
2016-04-12T03:57:53.490Z,1002.39
2016-04-12T03:58:36.462Z,1002.39
2016-04-12T03:59:19.415Z,1002.41
2016-04-12T04:00:02.386Z,1002.36
2016-04-12T04:00:45.342Z,1002.32
2016-04-12T04:01:28.295Z,1002.3
2016-04-12T04:02:11.251Z,1002.31
2016-04-12T04:02:54.441Z,1002.29
2016-04-12T04:03:37.397Z,1002.29
2016-04-12T04:04:20.350Z,1002.25
2016-04-12T04:05:03.306Z,1002.24
2016-04-12T04:05:46.293Z,1002.23
2016-04-12T04:06:29.230Z,1002.25
2016-04-12T04:07:12.185Z,1002.24
2016-04-12T04:07:55.142Z,1002.23
2016-04-12T04:08:38.083Z,1002.22
2016-04-12T04:09:21.052Z,1002.25
2016-04-12T04:10:04.023Z,1002.27
2016-04-12T04:10:46.979Z,1002.21
2016-04-12T04:11:29.932Z,1002.19
2016-04-12T04:12:12.871Z,1002.19
2016-04-12T04:12:55.812Z,1002.19
2016-04-12T04:13:38.768Z,1002.19
2016-04-12T04:14:21.721Z,1002.23
2016-04-12T04:15:04.676Z,1002.23
2016-04-12T04:15:47.648Z,1002.25
2016-04-12T04:16:30.601Z,1002.28
2016-04-12T04:17:13.525Z,1002.26
2016-04-12T04:17:55.545Z,1002.24
2016-04-12T04:18:38.484Z,1002.23
2016-04-12T04:19:21.468Z,1002.22
2016-04-12T04:20:04.440Z,1002.23
2016-04-12T04:20:47.395Z,1002.25
2016-04-12T04:21:30.348Z,1002.19
2016-04-12T04:22:13.305Z,1002.23
2016-04-12T04:22:56.261Z,1002.2
2016-04-12T04:23:39.200Z,1002.25
2016-04-12T04:24:22.153Z,1002.27
2016-04-12T04:25:05.125Z,1002.25
2016-04-12T04:25:48.097Z,1002.25
2016-04-12T04:26:31.050Z,1002.23
2016-04-12T04:27:13.990Z,1002.24
2016-04-12T04:27:56.961Z,1002.19
2016-04-12T04:28:39.886Z,1002.23
2016-04-12T04:29:22.870Z,1002.26
2016-04-12T04:30:05.811Z,1002.21
2016-04-12T04:30:48.797Z,1002.18
2016-04-12T04:31:31.735Z,1002.21
2016-04-12T04:32:14.691Z,1002.21
2016-04-12T04:32:57.928Z,1002.2
2016-04-12T04:33:40.883Z,1002.2
2016-04-12T04:34:23.821Z,1002.17
2016-04-12T04:35:05.996Z,1002.2
2016-04-12T04:35:48.967Z,1002.18
2016-04-12T04:36:31.935Z,1002.2
2016-04-12T04:37:14.861Z,1002.2
2016-04-12T04:37:57.785Z,1002.24
2016-04-12T04:38:40.741Z,1002.23
2016-04-12T04:39:23.694Z,1002.22
2016-04-12T04:40:06.635Z,1002.24
2016-04-12T04:40:49.590Z,1002.24
2016-04-12T04:41:32.527Z,1002.31
2016-04-12T04:42:15.499Z,1002.32
2016-04-12T04:42:58.455Z,1002.33
2016-04-12T04:43:41.395Z,1002.38
2016-04-12T04:44:24.348Z,1002.42
2016-04-12T04:45:07.288Z,1002.45
2016-04-12T04:45:50.245Z,1002.48
2016-04-12T04:46:33.026Z,1002.5
2016-04-12T04:47:15.981Z,1002.52
2016-04-12T04:47:58.828Z,1002.54
2016-04-12T04:48:41.768Z,1002.54
2016-04-12T04:49:24.721Z,1002.54
2016-04-12T04:50:07.662Z,1002.52
2016-04-12T04:50:50.617Z,1002.51
2016-04-12T04:51:33.586Z,1002.49
2016-04-12T04:52:16.526Z,1002.47
2016-04-12T04:52:59.481Z,1002.46
2016-04-12T04:53:42.423Z,1002.46
2016-04-12T04:54:25.392Z,1002.48
2016-04-12T04:55:08.347Z,1002.52
2016-04-12T04:55:51.334Z,1002.47
2016-04-12T04:56:34.287Z,1002.48
2016-04-12T04:57:17.227Z,1002.48
2016-04-12T04:58:00.182Z,1002.5
2016-04-12T04:58:43.139Z,1002.52
2016-04-12T04:59:25.295Z,1002.53
2016-04-12T05:00:08.250Z,1002.54
2016-04-12T05:00:51.175Z,1002.55
2016-04-12T05:01:34.128Z,1002.55
2016-04-12T05:02:17.053Z,1002.54
2016-04-12T05:03:00.133Z,1002.6
2016-04-12T05:03:43.074Z,1002.59
2016-04-12T05:04:26.011Z,1002.58
2016-04-12T05:05:08.952Z,1002.61
2016-04-12T05:05:51.908Z,1002.57
2016-04-12T05:06:34.861Z,1002.61
2016-04-12T05:07:17.816Z,1002.58
2016-04-12T05:08:00.772Z,1002.6
2016-04-12T05:08:43.416Z,1002.6
2016-04-12T05:09:26.369Z,1002.57
2016-04-12T05:10:09.341Z,1002.58
2016-04-12T05:10:52.321Z,1002.58
2016-04-12T05:11:35.274Z,1002.58
2016-04-12T05:12:18.230Z,1002.57
2016-04-12T05:13:03.921Z,1002.57
2016-04-12T05:13:46.876Z,1002.56
2016-04-12T05:14:29.829Z,1002.59
2016-04-12T05:15:12.784Z,1002.6
2016-04-12T05:15:55.726Z,1002.6
2016-04-12T05:16:38.681Z,1002.61
2016-04-12T05:17:21.634Z,1002.61
2016-04-12T05:18:04.715Z,1002.59
2016-04-12T05:18:47.655Z,1002.57
2016-04-12T05:19:30.608Z,1002.6
2016-04-12T05:20:13.564Z,1002.55
2016-04-12T05:20:56.520Z,1002.58
2016-04-12T05:21:39.491Z,1002.56
2016-04-12T05:22:22.460Z,1002.56
2016-04-12T05:23:05.400Z,1002.6
2016-04-12T05:23:48.341Z,1002.59
2016-04-12T05:24:31.341Z,1002.64
2016-04-12T05:25:14.297Z,1002.63
2016-04-12T05:25:57.269Z,1002.63
2016-04-12T05:26:40.224Z,1002.63
2016-04-12T05:27:23.192Z,1002.64
2016-04-12T05:28:06.180Z,1002.65
2016-04-12T05:28:49.135Z,1002.63
2016-04-12T05:29:32.088Z,1002.62
2016-04-12T05:30:15.060Z,1002.68
2016-04-12T05:30:58.016Z,1002.64
2016-04-12T05:31:40.955Z,1002.67
2016-04-12T05:32:23.893Z,1002.65
2016-04-12T05:33:06.833Z,1002.72
2016-04-12T05:33:49.789Z,1002.73
2016-04-12T05:34:32.757Z,1002.75
2016-04-12T05:35:15.808Z,1002.7
2016-04-12T05:36:00.263Z,1002.72
2016-04-12T05:36:46.703Z,1002.73
2016-04-12T05:37:30.687Z,1002.76
2016-04-12T05:38:13.629Z,1002.75
2016-04-12T05:38:56.599Z,1002.78
2016-04-12T05:39:39.384Z,1002.76
2016-04-12T05:40:22.337Z,1002.81
2016-04-12T05:41:05.293Z,1002.81
2016-04-12T05:41:50.264Z,1002.86
2016-04-12T05:42:33.295Z,1002.86
2016-04-12T05:43:16.314Z,1002.84
2016-04-12T05:43:59.534Z,1002.85
2016-04-12T05:44:43.476Z,1002.82
2016-04-12T05:45:27.445Z,1002.82
2016-04-12T05:46:10.822Z,1002.78
2016-04-12T05:46:53.809Z,1002.79
2016-04-12T05:47:36.746Z,1002.78
2016-04-12T05:48:19.420Z,1002.77
2016-04-12T05:49:02.376Z,1002.78
2016-04-12T05:49:45.348Z,1002.75
2016-04-12T05:50:28.629Z,1002.71
2016-04-12T05:51:11.600Z,1002.75
2016-04-12T05:51:54.838Z,1002.73
2016-04-12T05:52:38.794Z,1002.73
2016-04-12T05:53:23.356Z,1002.71
2016-04-12T05:54:08.859Z,1002.74
2016-04-12T05:54:53.267Z,1002.76
2016-04-12T05:55:36.689Z,1002.75
2016-04-12T05:56:20.755Z,1002.74
2016-04-12T05:57:05.148Z,1002.73
2016-04-12T05:57:49.197Z,1002.72
2016-04-12T05:58:36.244Z,1002.74
2016-04-12T05:59:23.622Z,1002.75
2016-04-12T06:00:08.031Z,1002.8
2016-04-12T06:00:52.252Z,1002.77
2016-04-12T06:01:36.127Z,1002.79
2016-04-12T06:02:20.568Z,1002.72
2016-04-12T06:03:04.555Z,1002.73
2016-04-12T06:03:48.542Z,1002.72
2016-04-12T06:04:32.574Z,1002.74
2016-04-12T06:05:16.341Z,1002.73
2016-04-12T06:05:59.875Z,1002.7
2016-04-12T06:06:42.988Z,1002.72
2016-04-12T06:07:26.050Z,1002.71
2016-04-12T06:08:08.271Z,1002.72
2016-04-12T06:08:51.259Z,1002.69
2016-04-12T06:09:34.212Z,1002.69
2016-04-12T06:10:17.152Z,1002.7
2016-04-12T06:11:00.123Z,1002.66
2016-04-12T06:11:43.063Z,1002.68
2016-04-12T06:12:26.017Z,1002.66
2016-04-12T06:13:08.987Z,1002.71
2016-04-12T06:13:51.928Z,1002.68
2016-04-12T06:14:35.272Z,1002.75
2016-04-12T06:15:18.337Z,1002.69
2016-04-12T06:16:01.309Z,1002.71
2016-04-12T06:16:44.233Z,1002.77
2016-04-12T06:17:27.186Z,1002.79
2016-04-12T06:18:10.236Z,1002.77
2016-04-12T06:18:53.207Z,1002.78
2016-04-12T06:19:36.161Z,1002.77
2016-04-12T06:20:19.116Z,1002.75
2016-04-12T06:21:02.072Z,1002.73
2016-04-12T06:21:45.044Z,1002.73
2016-04-12T06:22:27.981Z,1002.78
2016-04-12T06:23:10.953Z,1002.75
2016-04-12T06:23:53.877Z,1002.79
2016-04-12T06:24:36.845Z,1002.76
2016-04-12T06:25:19.802Z,1002.8
2016-04-12T06:26:02.789Z,1002.84
2016-04-12T06:26:45.588Z,1002.84
2016-04-12T06:27:28.541Z,1002.86
2016-04-12T06:28:11.480Z,1002.81
2016-04-12T06:28:54.438Z,1002.86
2016-04-12T06:29:37.391Z,1002.83
2016-04-12T06:30:20.361Z,1002.81
2016-04-12T06:31:03.302Z,1002.78
2016-04-12T06:31:46.258Z,1002.82
2016-04-12T06:32:29.211Z,1002.81
2016-04-12T06:33:12.182Z,1002.81
2016-04-12T06:33:54.966Z,1002.83
2016-04-12T06:34:37.919Z,1002.84
2016-04-12T06:35:20.860Z,1002.82
2016-04-12T06:36:03.832Z,1002.81
2016-04-12T06:36:46.818Z,1002.78
2016-04-12T06:37:29.787Z,1002.79
2016-04-12T06:38:12.758Z,1002.82
2016-04-12T06:38:55.746Z,1002.79
2016-04-12T06:39:38.683Z,1002.82
2016-04-12T06:40:21.655Z,1002.82
2016-04-12T06:41:04.595Z,1002.83
2016-04-12T06:41:47.628Z,1002.84
2016-04-12T06:42:30.597Z,1002.83
2016-04-12T06:43:13.553Z,1002.85
2016-04-12T06:43:56.509Z,1002.88
2016-04-12T06:44:39.574Z,1002.88
2016-04-12T06:45:22.621Z,1002.9
2016-04-12T06:46:05.420Z,1002.86
2016-04-12T06:46:48.392Z,1002.87
2016-04-12T06:47:31.814Z,1002.87
2016-04-12T06:48:14.801Z,1002.87
2016-04-12T06:48:57.756Z,1002.89
2016-04-12T06:49:40.712Z,1002.94
2016-04-12T06:50:23.665Z,1002.92
2016-04-12T06:51:06.622Z,1002.97
2016-04-12T06:51:49.593Z,1002.93
2016-04-12T06:52:32.562Z,1002.87
2016-04-12T06:53:15.548Z,1002.91
2016-04-12T06:53:58.489Z,1002.87
2016-04-12T06:54:41.445Z,1002.89
2016-04-12T06:55:24.398Z,1002.88
2016-04-12T06:56:07.354Z,1002.94
2016-04-12T06:56:50.294Z,1002.94
2016-04-12T06:57:33.263Z,1002.95
2016-04-12T06:58:16.234Z,1002.92
2016-04-12T06:58:59.189Z,1002.95
2016-04-12T06:59:42.146Z,1002.98
2016-04-12T07:00:25.083Z,1003
2016-04-12T07:01:08.054Z,1002.99
2016-04-12T07:01:51.010Z,1002.95
2016-04-12T07:02:33.979Z,1002.97
2016-04-12T07:03:16.935Z,1003.01
2016-04-12T07:03:59.735Z,1003
2016-04-12T07:04:42.596Z,1003
2016-04-12T07:05:25.565Z,1003.01
2016-04-12T07:06:08.505Z,1002.99
2016-04-12T07:06:51.461Z,1003.05
2016-04-12T07:07:34.415Z,1003.05
2016-04-12T07:08:17.385Z,1002.99
2016-04-12T07:09:00.341Z,1003
2016-04-12T07:09:43.313Z,1003.01
2016-04-12T07:10:26.251Z,1003.05
2016-04-12T07:11:09.221Z,1003.07
2016-04-12T07:11:52.006Z,1003.03
2016-04-12T07:12:34.974Z,1003.01
2016-04-12T07:13:17.931Z,1002.99
2016-04-12T07:14:00.918Z,1003.04
2016-04-12T07:14:43.873Z,1003.01
2016-04-12T07:15:26.826Z,1003.02
2016-04-12T07:16:09.782Z,1002.98
2016-04-12T07:16:52.754Z,1002.96
2016-04-12T07:17:35.692Z,1003
2016-04-12T07:18:18.662Z,1002.95
2016-04-12T07:19:01.681Z,1003
2016-04-12T07:19:44.465Z,1002.97
2016-04-12T07:20:27.434Z,1002.98
2016-04-12T07:21:10.390Z,1002.97
2016-04-12T07:21:53.345Z,1002.95
2016-04-12T07:22:36.298Z,1002.97
2016-04-12T07:23:19.270Z,1002.96
2016-04-12T07:24:02.225Z,1002.92
2016-04-12T07:24:45.181Z,1002.92
2016-04-12T07:25:28.119Z,1002.92
2016-04-12T07:26:11.091Z,1002.94
2016-04-12T07:26:54.078Z,1002.96
2016-04-12T07:27:37.140Z,1002.96
2016-04-12T07:28:20.080Z,1002.96
2016-04-12T07:29:03.052Z,1002.95
2016-04-12T07:29:46.023Z,1002.95
2016-04-12T07:30:28.977Z,1002.98
2016-04-12T07:31:11.947Z,1002.91
2016-04-12T07:31:54.763Z,1002.91
2016-04-12T07:32:37.716Z,1002.97
2016-04-12T07:33:20.703Z,1002.9
2016-04-12T07:34:03.644Z,1002.89
2016-04-12T07:34:46.630Z,1002.92
2016-04-12T07:35:29.583Z,1002.94
2016-04-12T07:36:12.538Z,1002.93
2016-04-12T07:36:55.480Z,1002.93
2016-04-12T07:37:38.449Z,1002.95
2016-04-12T07:38:21.404Z,1002.99
2016-04-12T07:39:04.376Z,1002.92
2016-04-12T07:39:47.332Z,1003.06
2016-04-12T07:40:30.300Z,1003.01
2016-04-12T07:41:13.256Z,1003.02
2016-04-12T07:41:56.215Z,1002.95
2016-04-12T07:42:39.168Z,1002.96
2016-04-12T07:43:22.188Z,1002.97
2016-04-12T07:44:05.192Z,1002.99
2016-04-12T07:44:48.210Z,1002.93
2016-04-12T07:45:31.164Z,1002.97
2016-04-12T07:46:14.184Z,1002.99
2016-04-12T07:46:57.217Z,1003
2016-04-12T07:47:40.170Z,1003.02
2016-04-12T07:48:23.127Z,1002.97
2016-04-12T07:49:06.084Z,1003
2016-04-12T07:49:49.074Z,1002.99
2016-04-12T07:50:32.042Z,1003
2016-04-12T07:51:15.031Z,1002.94
2016-04-12T07:51:58.019Z,1002.98
2016-04-12T07:52:41.028Z,1002.99
2016-04-12T07:53:23.981Z,1002.95
2016-04-12T07:54:06.958Z,1002.97
2016-04-12T07:54:49.920Z,1002.95
2016-04-12T07:55:32.904Z,1002.96
2016-04-12T07:56:15.882Z,1002.98
2016-04-12T07:56:58.860Z,1003
2016-04-12T07:57:41.802Z,1003.02
2016-04-12T07:58:24.755Z,1002.99
2016-04-12T07:59:07.713Z,1002.98
2016-04-12T07:59:50.703Z,1002.98
2016-04-12T08:00:33.656Z,1002.96
2016-04-12T08:01:16.629Z,1002.94
2016-04-12T08:01:59.571Z,1002.94
2016-04-12T08:02:42.575Z,1002.99
2016-04-12T08:03:25.544Z,1002.94
2016-04-12T08:04:08.517Z,1002.99
2016-04-12T08:04:51.473Z,1002.95
2016-04-12T08:05:34.457Z,1002.9
2016-04-12T08:06:17.413Z,1002.96
2016-04-12T08:07:00.402Z,1002.92
2016-04-12T08:07:43.358Z,1002.92
2016-04-12T08:08:26.331Z,1002.94
2016-04-12T08:09:09.288Z,1002.95
2016-04-12T08:09:52.258Z,1003.05
2016-04-12T08:10:35.227Z,1003.04
2016-04-12T08:11:18.200Z,1003.04
2016-04-12T08:12:01.172Z,1003.04
2016-04-12T08:12:44.142Z,1003.13
2016-04-12T08:13:27.095Z,1003.12
2016-04-12T08:14:10.056Z,1003.03
2016-04-12T08:14:53.028Z,1003.05
2016-04-12T08:15:35.981Z,1003.08
2016-04-12T08:16:18.953Z,1003.06
2016-04-12T08:17:01.909Z,1003.07
2016-04-12T08:17:44.880Z,1003.1
2016-04-12T08:18:27.833Z,1003.08
2016-04-12T08:19:10.788Z,1003.07
2016-04-12T08:19:53.761Z,1003.1
2016-04-12T08:20:36.730Z,1003.12
2016-04-12T08:21:19.685Z,1003.1
2016-04-12T08:22:02.641Z,1003
2016-04-12T08:22:45.627Z,1003.14
2016-04-12T08:23:28.612Z,1003.1
2016-04-12T08:24:11.569Z,1003.13
2016-04-12T08:24:54.540Z,1003.11
2016-04-12T08:25:37.508Z,1003.05
2016-04-12T08:26:20.479Z,1003.04
2016-04-12T08:27:03.466Z,1002.94
2016-04-12T08:27:46.438Z,1003.05
2016-04-12T08:28:29.376Z,1003.01
2016-04-12T08:29:12.347Z,1002.98
2016-04-12T08:29:55.304Z,1002.98
2016-04-12T08:30:38.257Z,1002.94
2016-04-12T08:31:21.212Z,1002.98
2016-04-12T08:32:04.199Z,1002.99
2016-04-12T08:32:47.154Z,1003.06
2016-04-12T08:33:30.123Z,1003.08
2016-04-12T08:34:13.079Z,1003.07
2016-04-12T08:34:56.051Z,1003.09
2016-04-12T08:35:39.004Z,1003.09
2016-04-12T08:36:21.991Z,1003.13
2016-04-12T08:37:04.947Z,1003.15
2016-04-12T08:37:47.918Z,1003.19
2016-04-12T08:38:30.887Z,1003.19
2016-04-12T08:39:13.874Z,1003.18
2016-04-12T08:39:56.831Z,1003.16
2016-04-12T08:40:39.799Z,1003.23
2016-04-12T08:41:22.754Z,1003.21
2016-04-12T08:42:05.742Z,1003.22
2016-04-12T08:42:48.698Z,1003.19
2016-04-12T08:43:31.682Z,1003.18
2016-04-12T08:44:14.622Z,1003.15
2016-04-12T08:44:57.594Z,1003.23
2016-04-12T08:45:40.531Z,1003.19